createdAt,value
2024-02-16T00:01:18.392Z,5.63
2024-02-16T00:06:20.181Z,6.03
2024-02-16T00:11:22.507Z,6.37
2024-02-16T00:16:24.200Z,6.57
2024-02-16T00:21:25.940Z,6.40
2024-02-16T00:26:27.780Z,6.00
2024-02-16T00:31:29.559Z,6.07
2024-02-16T00:36:32.052Z,5.97
2024-02-16T00:41:33.906Z,6.17
2024-02-16T00:46:37.361Z,6.83
2024-02-16T00:51:39.424Z,6.27
2024-02-16T00:56:41.074Z,6.30
2024-02-16T01:01:42.694Z,5.93
2024-02-16T01:06:44.349Z,6.33
2024-02-16T01:11:46.073Z,5.93
2024-02-16T01:16:47.881Z,6.07
2024-02-16T01:21:53.507Z,6.03
2024-02-16T01:26:55.562Z,5.60
2024-02-16T01:31:57.335Z,6.00
2024-02-16T01:36:58.970Z,6.10
2024-02-16T01:42:00.723Z,5.90
2024-02-16T01:47:05.534Z,5.97
2024-02-16T01:52:07.748Z,6.17
2024-02-16T01:57:12.160Z,6.43
2024-02-16T02:02:14.062Z,6.40
2024-02-16T02:07:16.806Z,6.43
2024-02-16T02:12:19.546Z,6.13
2024-02-16T02:17:21.293Z,6.67
2024-02-16T02:22:23.423Z,6.27
2024-02-16T02:27:25.160Z,6.80
2024-02-16T02:32:26.895Z,6.30
2024-02-16T02:37:28.553Z,6.93
2024-02-16T02:42:30.229Z,6.60
2024-02-16T02:47:31.952Z,5.87
2024-02-16T02:52:33.618Z,6.40
2024-02-16T02:57:35.271Z,7.00
2024-02-16T03:02:38.374Z,5.90
2024-02-16T03:07:40.097Z,6.00
2024-02-16T03:12:41.722Z,6.20
2024-02-16T03:17:43.442Z,6.30
2024-02-16T03:22:45.109Z,6.50
2024-02-16T03:27:46.862Z,6.40
2024-02-16T03:32:51.997Z,6.43
2024-02-16T03:37:53.735Z,6.20
2024-02-16T03:42:55.572Z,6.60
2024-02-16T03:47:57.440Z,6.63
2024-02-16T03:53:00.718Z,6.10
2024-02-16T03:58:02.976Z,6.20
2024-02-16T04:03:05.758Z,6.17
2024-02-16T04:08:07.947Z,9.00
2024-02-16T04:13:09.691Z,8.77
2024-02-16T04:18:11.545Z,8.50
2024-02-16T04:23:13.320Z,8.70
2024-02-16T04:28:15.037Z,7.93
2024-02-16T04:33:16.802Z,7.30
2024-02-16T04:38:19.441Z,7.03
2024-02-16T04:43:21.089Z,7.03
2024-02-16T04:48:22.900Z,7.80
2024-02-16T04:53:24.686Z,8.10
2024-02-16T04:58:26.504Z,7.40
2024-02-16T05:03:28.326Z,7.57
2024-02-16T05:08:30.034Z,8.33
2024-02-16T05:13:31.759Z,6.73
2024-02-16T05:18:33.577Z,7.07
2024-02-16T05:23:35.244Z,6.77
2024-02-16T05:28:36.914Z,7.47
2024-02-16T05:33:38.620Z,6.93
2024-02-16T05:38:44.526Z,6.80
2024-02-16T05:43:46.151Z,7.00
2024-02-16T05:48:47.938Z,7.53
2024-02-16T05:53:49.669Z,6.77
2024-02-16T05:58:51.457Z,7.00
2024-02-16T06:03:53.078Z,7.93
2024-02-16T06:08:54.723Z,7.67
2024-02-16T06:13:56.689Z,7.43
2024-02-16T06:18:58.460Z,7.03
2024-02-16T06:24:00.121Z,8.00
2024-02-16T06:29:02.054Z,7.37
2024-02-16T06:34:04.402Z,7.50
2024-02-16T06:39:06.208Z,8.27
2024-02-16T06:44:07.885Z,7.17
2024-02-16T06:49:09.658Z,8.00
2024-02-16T06:54:11.504Z,7.77
2024-02-16T06:59:13.203Z,7.97
2024-02-16T07:04:15.903Z,7.97
2024-02-16T07:09:17.603Z,7.87
2024-02-16T07:14:19.668Z,7.43
2024-02-16T07:19:21.439Z,8.20
2024-02-16T07:24:23.191Z,7.10
2024-02-16T07:29:24.890Z,7.20
2024-02-16T07:34:26.855Z,7.90
2024-02-16T07:39:28.567Z,6.73
2024-02-16T07:44:30.225Z,6.27
2024-02-16T07:49:32.292Z,7.10
2024-02-16T07:54:34.035Z,6.30
2024-02-16T07:59:35.739Z,5.87
2024-02-16T08:04:37.355Z,5.47
2024-02-16T08:09:39.103Z,5.67
2024-02-16T08:14:41.331Z,5.70
2024-02-16T08:19:43.106Z,8.33
2024-02-16T08:24:47.376Z,5.20
2024-02-16T08:29:49.101Z,5.90
2024-02-16T08:34:51.419Z,5.67
2024-02-16T08:39:54.011Z,5.67
2024-02-16T08:44:55.639Z,5.43
2024-02-16T08:49:57.308Z,5.43
2024-02-16T08:54:58.926Z,5.33
2024-02-16T09:00:00.704Z,5.30
2024-02-16T09:05:02.555Z,4.73
2024-02-16T09:10:05.638Z,5.23
2024-02-16T09:15:07.969Z,5.43
2024-02-16T09:20:10.360Z,5.07
2024-02-16T09:25:12.186Z,4.70
2024-02-16T09:30:14.445Z,4.97
2024-02-16T09:35:16.222Z,5.13
2024-02-16T09:40:19.538Z,4.30
2024-02-16T09:45:21.505Z,4.40
2024-02-16T09:50:23.307Z,4.67
2024-02-16T09:55:25.826Z,3.97
2024-02-16T10:00:27.982Z,4.70
2024-02-16T10:05:31.981Z,4.50
2024-02-16T10:10:38.336Z,5.07
2024-02-16T10:15:39.970Z,4.27
2024-02-16T10:20:42.338Z,4.23
2024-02-16T10:25:44.381Z,4.53
2024-02-16T10:30:46.635Z,3.87
2024-02-16T10:35:50.263Z,3.90
2024-02-16T10:40:52.904Z,3.80
2024-02-16T10:45:55.927Z,3.70
2024-02-16T10:50:58.793Z,3.30
2024-02-16T10:56:02.391Z,3.90
2024-02-16T11:06:23.185Z,3.10
2024-02-16T11:11:25.355Z,3.13
2024-02-16T11:16:29.122Z,3.00
2024-02-16T11:21:32.481Z,3.17
2024-02-16T11:26:43.567Z,2.40
2024-02-16T11:31:45.369Z,2.60
2024-02-16T11:36:47.168Z,2.80
2024-02-16T11:41:48.848Z,2.80
2024-02-16T11:46:54.938Z,3.13
2024-02-16T11:51:57.769Z,2.90
2024-02-16T11:56:59.511Z,2.40
2024-02-16T12:02:01.158Z,2.93
2024-02-16T12:07:05.705Z,2.27
2024-02-16T12:12:08.145Z,2.10
2024-02-16T12:17:09.759Z,2.47
2024-02-16T12:22:11.359Z,2.20
2024-02-16T12:27:13.420Z,2.60
2024-02-16T12:32:20.134Z,2.47
2024-02-16T12:37:23.358Z,2.53
2024-02-16T12:42:25.301Z,2.33
2024-02-16T12:47:27.016Z,1.90
2024-02-16T12:52:28.648Z,2.07
2024-02-16T12:57:30.555Z,2.33
2024-02-16T13:02:32.321Z,2.23
2024-02-16T13:07:33.977Z,1.90
2024-02-16T13:12:36.455Z,2.03
2024-02-16T13:17:38.143Z,2.17
2024-02-16T13:22:40.371Z,1.80
2024-02-16T13:27:42.074Z,1.80
2024-02-16T13:32:43.804Z,2.50
2024-02-16T13:37:45.502Z,2.00
2024-02-16T13:42:47.252Z,2.40
2024-02-16T13:47:48.838Z,2.23
2024-02-16T13:52:51.010Z,2.00
2024-02-16T13:57:52.607Z,1.97
2024-02-16T14:02:54.244Z,1.87
2024-02-16T14:08:00.631Z,2.07
2024-02-16T14:13:03.530Z,2.00
2024-02-16T14:18:11.371Z,2.37
2024-02-16T14:23:16.366Z,1.97
2024-02-16T14:28:18.011Z,2.03
2024-02-16T14:33:26.621Z,1.80
2024-02-16T14:38:34.212Z,1.80
2024-02-16T14:43:36.126Z,2.40
2024-02-16T14:48:38.220Z,2.10
2024-02-16T14:53:39.886Z,2.00
2024-02-16T14:58:41.782Z,2.20
2024-02-16T15:03:43.560Z,2.67
2024-02-16T15:08:45.291Z,2.10
2024-02-16T15:13:46.949Z,2.10
2024-02-16T15:18:48.690Z,1.90
2024-02-16T15:23:50.400Z,2.20
2024-02-16T15:28:52.016Z,2.80
2024-02-16T15:33:53.891Z,2.20
2024-02-16T15:38:55.854Z,2.20
2024-02-16T15:43:57.716Z,2.20
2024-02-16T15:48:59.391Z,2.27
2024-02-16T15:54:02.463Z,2.57
2024-02-16T15:59:04.083Z,2.20
2024-02-16T16:04:06.347Z,2.57
2024-02-16T16:09:09.979Z,2.47
2024-02-16T16:14:11.964Z,2.70
2024-02-16T16:19:13.604Z,2.60
2024-02-16T16:24:15.396Z,3.10
2024-02-16T16:29:17.042Z,3.27
2024-02-16T16:34:18.694Z,3.73
2024-02-16T16:39:20.313Z,4.53
2024-02-16T16:44:23.752Z,2.40
2024-02-16T16:49:26.273Z,2.67
2024-02-16T16:54:28.001Z,3.50
2024-02-16T16:59:29.800Z,2.80
2024-02-16T17:04:35.158Z,3.10
2024-02-16T17:09:36.955Z,3.43
2024-02-16T17:14:40.640Z,3.07
2024-02-16T17:19:42.650Z,4.70
2024-02-16T17:24:44.392Z,5.57
2024-02-16T17:29:47.364Z,4.50
2024-02-16T17:34:49.116Z,4.27
2024-02-16T17:39:52.935Z,4.27
2024-02-16T17:44:56.372Z,3.67
2024-02-16T17:49:58.130Z,3.30
2024-02-16T17:55:06.805Z,3.17
2024-02-16T18:00:11.202Z,3.77
2024-02-16T18:05:16.280Z,3.50
2024-02-16T18:10:18.393Z,4.47
2024-02-16T18:15:20.233Z,4.33
2024-02-16T18:20:22.857Z,4.63
2024-02-16T18:25:24.516Z,4.63
2024-02-16T18:30:26.563Z,4.87
2024-02-16T18:35:28.389Z,5.47
2024-02-16T18:40:30.323Z,5.33
2024-02-16T18:45:32.038Z,4.80
2024-02-16T18:50:33.784Z,4.83
2024-02-16T18:55:35.895Z,5.50
2024-02-16T19:00:38.754Z,6.27
2024-02-16T19:05:40.601Z,6.53
2024-02-16T19:10:43.639Z,6.43
2024-02-16T19:15:45.432Z,6.23
2024-02-16T19:20:47.099Z,5.80
2024-02-16T19:25:48.834Z,4.73
2024-02-16T19:30:50.645Z,5.43
2024-02-16T19:35:53.554Z,4.80
2024-02-16T19:40:55.301Z,4.53
2024-02-16T19:45:57.274Z,4.87
2024-02-16T19:50:59.233Z,5.00
2024-02-16T19:56:01.855Z,5.60
2024-02-16T20:01:03.731Z,6.00
2024-02-16T20:06:07.427Z,4.90
2024-02-16T20:11:09.513Z,5.63
2024-02-16T20:16:11.327Z,5.17
2024-02-16T20:21:13.528Z,5.90
2024-02-16T20:26:22.840Z,5.00
2024-02-16T20:31:25.054Z,5.60
2024-02-16T20:36:26.838Z,5.27
2024-02-16T20:41:29.571Z,5.30
2024-02-16T20:46:31.293Z,5.20
2024-02-16T20:51:33.052Z,5.53
2024-02-16T20:56:34.781Z,4.50
2024-02-16T21:01:36.742Z,4.70
2024-02-16T21:06:42.080Z,6.07
2024-02-16T21:11:44.097Z,5.50
2024-02-16T21:16:48.527Z,5.53
2024-02-16T21:21:50.698Z,6.33
2024-02-16T21:26:52.615Z,6.60
2024-02-16T21:31:54.310Z,6.77
2024-02-16T21:36:58.938Z,6.20
2024-02-16T21:42:00.895Z,6.60
2024-02-16T21:47:05.363Z,5.70
2024-02-16T21:52:07.764Z,6.40
2024-02-16T21:57:09.521Z,6.20
2024-02-16T22:02:11.281Z,7.20
2024-02-16T22:07:14.110Z,7.20
2024-02-16T22:12:15.975Z,8.00
2024-02-16T22:17:17.643Z,8.30
2024-02-16T22:22:19.681Z,8.77
2024-02-16T22:27:21.541Z,8.63
2024-02-16T22:32:23.243Z,8.97
2024-02-16T22:37:24.940Z,9.70
2024-02-16T22:42:26.661Z,9.87
2024-02-16T22:47:28.424Z,9.03
2024-02-16T22:52:30.125Z,9.40
2024-02-16T22:57:31.966Z,8.70
2024-02-16T23:02:33.776Z,8.77
2024-02-16T23:07:35.950Z,8.20
2024-02-16T23:12:37.944Z,8.47
2024-02-16T23:17:39.895Z,7.90
2024-02-16T23:23:03.816Z,7.67
2024-02-16T23:28:06.116Z,6.83
2024-02-16T23:33:10.225Z,7.67
2024-02-16T23:38:12.771Z,7.23
2024-02-16T23:43:15.506Z,6.93
2024-02-16T23:48:17.306Z,7.33
2024-02-16T23:53:19.093Z,7.20
2024-02-16T23:58:21.344Z,6.57
